Weather at Barking Sands Airport

Public forecast

Using degrees Fahrenheit for public forecast. Weather courtesy of forecast.io.

Current aviation weather report (METAR) for Barking Sands Airport

Retrieved 2022/07/04 13:51 UTC (58 minutes ago):

PHBK 041351Z AUTO 08003KT 10SM OVC050 24/19 A3007 RMK AO2 SLP186 T02390189

Closest aviation forecast (TAF) to Barking Sands Airport

Closest forecast is Lihue Airport, 25.0 nm (46.3 km) E. Retrieved 2022/07/04 12:40 UTC (2 hours ago):

TAF NSTU 041138Z 0412/0512 11010KT P6SM VCSH SCT020 BKN040 TAF PHLI 041138Z 0412/0512 07018G25KT P6SM VCSH SCT025 BKN035